Time;durP1;ratioP1;P1;durP2;ratioP2;P2;SDS_P1;SDS_P2;PMS_P1;PMS_P2;Temp;Humidity;BMP_temperature;BMP_pressure;BME280_temperature;BME280_humidity;BME280_pressure;Samples;Min_cycle;Max_cycle;Signal;HPM_P1;HPM_P2
2023/03/12 00:00:07;;;;;;;1.17;1.07;;;2.50;99.90;;;;;;5053506;28;20303;-61
2023/03/12 00:02:34;;;;;;;1.27;0.90;;;2.60;99.90;;;;;;5053841;28;20238;-60
2023/03/12 00:05:01;;;;;;;0.80;0.80;;;2.50;99.90;;;;;;5053156;28;20610;-62
2023/03/12 00:07:27;;;;;;;0.90;0.90;;;2.60;99.90;;;;;;5053287;28;20195;-62
2023/03/12 00:09:54;;;;;;;0.95;0.90;;;2.60;99.90;;;;;;5053412;28;20208;-61
2023/03/12 00:12:22;;;;;;;0.90;0.90;;;2.50;99.90;;;;;;5053105;28;20220;-61
2023/03/12 00:14:49;;;;;;;1.20;1.10;;;2.50;99.90;;;;;;5052844;28;20230;-61
2023/03/12 00:17:16;;;;;;;0.80;0.80;;;2.60;99.90;;;;;;5053058;28;20228;-60
2023/03/12 00:19:44;;;;;;;0.80;0.80;;;2.50;99.90;;;;;;5053433;28;20214;-62
2023/03/12 00:22:10;;;;;;;0.85;0.85;;;2.50;99.90;;;;;;5052943;28;20210;-61
2023/03/12 00:24:37;;;;;;;0.90;0.90;;;2.50;99.90;;;;;;5052626;28;20220;-61
2023/03/12 00:27:04;;;;;;;0.93;0.93;;;2.40;99.90;;;;;;5053115;28;20203;-61
2023/03/12 00:29:32;;;;;;;0.98;0.98;;;2.50;99.90;;;;;;5052777;28;20216;-60
2023/03/12 00:31:59;;;;;;;1.00;1.00;;;2.40;99.90;;;;;;5052647;28;20216;-61
2023/03/12 00:34:26;;;;;;;0.90;0.90;;;2.40;99.90;;;;;;5054015;28;20228;-61
2023/03/12 00:36:53;;;;;;;0.90;0.90;;;2.40;99.90;;;;;;5052217;28;20244;-61
2023/03/12 00:39:19;;;;;;;0.90;0.90;;;2.30;99.90;;;;;;5052924;28;20694;-61
2023/03/12 00:41:46;;;;;;;0.70;0.70;;;2.30;99.90;;;;;;5052694;28;20212;-62
2023/03/12 00:44:14;;;;;;;0.90;0.90;;;2.30;99.90;;;;;;5051574;28;20238;-60
2023/03/12 00:46:42;;;;;;;0.80;0.80;;;2.30;99.90;;;;;;5053091;28;20209;-61
2023/03/12 00:49:10;;;;;;;1.03;0.90;;;2.30;99.90;;;;;;5053135;28;20210;-61
2023/03/12 00:51:37;;;;;;;0.90;0.90;;;2.30;99.90;;;;;;5052614;28;20208;-61
2023/03/12 00:54:04;;;;;;;1.33;0.63;;;2.40;99.90;;;;;;5052442;28;20266;-61
2023/03/12 00:56:32;;;;;;;0.90;0.90;;;2.40;99.90;;;;;;5053004;28;20227;-61
2023/03/12 00:58:58;;;;;;;0.70;0.70;;;2.40;99.90;;;;;;5052874;28;20206;-61
2023/03/12 01:01:26;;;;;;;1.03;0.90;;;2.40;99.90;;;;;;5052791;28;20588;-61
2023/03/12 01:03:55;;;;;;;0.80;0.80;;;2.40;99.90;;;;;;5052273;28;20204;-61
2023/03/12 01:06:22;;;;;;;0.97;0.97;;;2.50;99.90;;;;;;5052350;28;20208;-62
2023/03/12 01:08:49;;;;;;;0.80;0.80;;;2.40;99.90;;;;;;5052424;28;20204;-61
2023/03/12 01:11:17;;;;;;;0.68;0.68;;;2.50;99.90;;;;;;5051966;28;20211;-60
2023/03/12 01:13:44;;;;;;;0.90;0.90;;;2.50;99.90;;;;;;5052017;28;20219;-61
2023/03/12 01:16:11;;;;;;;0.68;0.68;;;2.40;99.90;;;;;;5051510;28;20625;-62
2023/03/12 01:18:38;;;;;;;0.93;0.90;;;2.40;99.90;;;;;;5052160;28;20210;-61
2023/03/12 01:21:07;;;;;;;0.90;0.90;;;2.40;99.90;;;;;;5051874;28;20214;-61
2023/03/12 01:23:34;;;;;;;0.90;0.90;;;2.40;99.90;;;;;;5051669;28;20204;-61
2023/03/12 01:26:00;;;;;;;0.80;0.80;;;2.40;99.90;;;;;;5051063;28;20224;-61
2023/03/12 01:28:27;;;;;;;1.42;1.10;;;2.50;99.90;;;;;;5052120;28;20200;-61
2023/03/12 01:30:54;;;;;;;0.77;0.77;;;2.60;99.90;;;;;;5051808;28;20200;-61
2023/03/12 01:33:22;;;;;;;0.67;0.67;;;2.60;99.90;;;;;;5052654;28;20733;-62
2023/03/12 01:35:49;;;;;;;0.90;0.90;;;2.60;99.90;;;;;;5054445;28;20278;-62
2023/03/12 01:38:19;;;;;;;0.90;0.90;;;2.60;99.90;;;;;;5053194;28;20666;-61
2023/03/12 01:40:46;;;;;;;0.73;0.70;;;2.50;99.90;;;;;;5053572;28;20208;-62
2023/03/12 01:43:29;;;;;;;1.00;1.00;;;2.60;99.90;;;;;;5052158;28;20926;-61
2023/03/12 01:46:21;;;;;;;0.70;0.70;;;2.60;99.90;;;;;;5051526;28;20232;-61
2023/03/12 01:48:53;;;;;;;0.60;0.60;;;2.60;99.90;;;;;;5052482;28;20200;-60
2023/03/12 01:51:21;;;;;;;1.25;1.00;;;2.70;99.90;;;;;;5055179;28;20208;-61
2023/03/12 01:53:53;;;;;;;1.17;1.07;;;2.70;99.90;;;;;;5066654;28;20203;-61
2023/03/12 01:56:21;;;;;;;0.90;0.90;;;2.80;99.90;;;;;;5066093;28;20281;-61
2023/03/12 01:58:50;;;;;;;0.87;0.87;;;2.70;99.90;;;;;;5067128;28;20204;-61
2023/03/12 02:01:19;;;;;;;0.75;0.75;;;2.70;99.90;;;;;;5063226;28;20207;-62
2023/03/12 02:03:49;;;;;;;0.75;0.75;;;2.80;99.90;;;;;;5051129;28;20203;-61
2023/03/12 02:06:16;;;;;;;1.37;1.20;;;2.80;99.90;;;;;;5050716;28;20203;-60
2023/03/12 02:08:46;;;;;;;0.87;0.87;;;2.80;99.90;;;;;;5051298;28;20583;-62
2023/03/12 02:11:14;;;;;;;0.80;0.80;;;2.90;99.90;;;;;;5050883;28;20832;-61
2023/03/12 02:13:41;;;;;;;0.90;0.90;;;2.90;99.90;;;;;;5050599;28;20704;-60
2023/03/12 02:16:09;;;;;;;0.88;0.88;;;2.90;99.90;;;;;;5050233;28;20208;-61
2023/03/12 02:18:36;;;;;;;0.77;0.77;;;2.90;99.90;;;;;;5051501;28;20235;-62
2023/03/12 02:21:13;;;;;;;0.73;0.73;;;3.00;99.90;;;;;;5046168;28;20207;-62
2023/03/12 02:23:52;;;;;;;1.00;1.00;;;3.00;99.90;;;;;;5050715;28;20204;-60
2023/03/12 02:26:21;;;;;;;0.77;0.77;;;3.10;99.90;;;;;;5050755;28;20188;-61
2023/03/12 02:28:50;;;;;;;0.70;0.70;;;3.10;99.90;;;;;;5051579;28;20345;-60
2023/03/12 02:31:21;;;;;;;0.80;0.80;;;3.20;99.90;;;;;;5053030;28;20200;-61
2023/03/12 02:33:48;;;;;;;0.85;0.85;;;3.20;99.90;;;;;;5050854;28;20671;-62
2023/03/12 02:36:15;;;;;;;0.80;0.80;;;3.20;99.90;;;;;;5050717;28;20204;-61
2023/03/12 02:38:44;;;;;;;0.70;0.70;;;3.30;99.90;;;;;;5051093;28;20663;-62
2023/03/12 02:41:14;;;;;;;0.80;0.80;;;3.30;99.90;;;;;;5051503;28;20310;-61
2023/03/12 02:43:45;;;;;;;0.80;0.80;;;3.30;99.90;;;;;;5051746;28;20222;-61
2023/03/12 02:46:13;;;;;;;0.70;0.70;;;3.30;99.90;;;;;;5051553;28;20192;-61
2023/03/12 02:48:40;;;;;;;1.17;1.10;;;3.30;99.90;;;;;;5050944;28;20208;-60
2023/03/12 02:51:07;;;;;;;0.60;0.60;;;3.40;99.90;;;;;;5050826;28;20214;-61
2023/03/12 02:53:34;;;;;;;0.77;0.77;;;3.40;99.90;;;;;;5050802;28;20203;-62
2023/03/12 02:56:01;;;;;;;0.80;0.80;;;3.40;99.90;;;;;;5050791;28;20234;-60
2023/03/12 02:58:28;;;;;;;0.53;0.53;;;3.50;99.90;;;;;;5051510;28;20220;-61
2023/03/12 03:00:56;;;;;;;0.83;0.83;;;3.50;99.90;;;;;;5054097;28;20210;-61
2023/03/12 03:03:22;;;;;;;0.70;0.70;;;3.60;99.90;;;;;;5055174;28;20208;-61
2023/03/12 03:05:50;;;;;;;0.67;0.67;;;3.70;99.90;;;;;;5055371;28;20231;-61
2023/03/12 03:08:17;;;;;;;0.80;0.80;;;3.70;99.90;;;;;;5054961;28;20210;-60
2023/03/12 03:10:44;;;;;;;0.70;0.70;;;3.80;99.90;;;;;;5054663;28;20216;-60
2023/03/12 03:13:11;;;;;;;0.80;0.80;;;3.80;99.90;;;;;;5054332;28;20639;-62
2023/03/12 03:15:38;;;;;;;0.70;0.70;;;3.80;99.90;;;;;;5053698;28;20228;-62
2023/03/12 03:18:07;;;;;;;0.60;0.60;;;3.90;99.90;;;;;;5056386;28;20223;-61
2023/03/12 03:20:33;;;;;;;0.60;0.60;;;3.90;99.90;;;;;;5054475;28;20211;-61
2023/03/12 03:23:00;;;;;;;0.77;0.77;;;3.90;99.90;;;;;;5054117;28;20204;-62
2023/03/12 03:25:27;;;;;;;0.68;0.68;;;4.00;99.90;;;;;;5053989;28;20234;-61
2023/03/12 03:27:54;;;;;;;0.90;0.90;;;4.00;99.90;;;;;;5054819;28;20542;-60
2023/03/12 03:30:21;;;;;;;0.80;0.80;;;4.00;99.90;;;;;;5055505;28;20200;-60
2023/03/12 03:32:48;;;;;;;0.80;0.80;;;4.10;99.90;;;;;;5055468;28;20208;-61
2023/03/12 03:35:17;;;;;;;0.98;0.98;;;4.20;99.90;;;;;;5055834;28;20596;-62
2023/03/12 03:37:44;;;;;;;0.73;0.73;;;4.20;99.90;;;;;;5056045;28;20216;-60
2023/03/12 03:40:12;;;;;;;0.80;0.80;;;4.20;99.90;;;;;;5055165;28;20678;-60
2023/03/12 03:42:39;;;;;;;0.80;0.80;;;4.30;99.90;;;;;;5055525;28;20218;-61
2023/03/12 03:45:08;;;;;;;1.23;0.90;;;4.30;99.90;;;;;;5054606;28;20219;-62
2023/03/12 03:47:35;;;;;;;0.63;0.63;;;4.30;99.90;;;;;;5058447;28;20211;-60
2023/03/12 03:50:02;;;;;;;1.00;0.93;;;4.30;99.90;;;;;;5056339;28;20592;-60
2023/03/12 03:52:31;;;;;;;0.70;0.70;;;4.30;99.90;;;;;;5060784;28;20218;-61
2023/03/12 03:54:58;;;;;;;1.02;1.00;;;4.40;99.90;;;;;;5063603;28;20228;-61
2023/03/12 03:57:25;;;;;;;0.90;0.90;;;4.40;99.90;;;;;;5054331;28;20658;-62
2023/03/12 03:59:52;;;;;;;0.80;0.80;;;4.40;99.90;;;;;;5054473;28;20204;-61
2023/03/12 04:02:18;;;;;;;0.80;0.80;;;4.40;99.90;;;;;;5053925;28;20204;-62
2023/03/12 04:04:45;;;;;;;0.70;0.70;;;4.40;99.90;;;;;;5053409;28;20230;-61
2023/03/12 04:07:12;;;;;;;0.83;0.83;;;4.50;99.90;;;;;;5054439;28;20210;-61
2023/03/12 04:09:40;;;;;;;0.75;0.75;;;4.50;99.90;;;;;;5053863;28;20227;-61
2023/03/12 04:12:07;;;;;;;0.70;0.70;;;4.50;99.90;;;;;;5052541;28;20683;-60
2023/03/12 04:14:34;;;;;;;1.03;1.00;;;4.60;99.90;;;;;;5053051;28;20224;-61
2023/03/12 04:17:01;;;;;;;0.83;0.83;;;4.60;99.90;;;;;;5053436;28;20227;-62
2023/03/12 04:19:28;;;;;;;0.70;0.70;;;4.60;99.90;;;;;;5053336;28;20206;-61
2023/03/12 04:21:55;;;;;;;1.20;1.00;;;4.60;99.90;;;;;;5053172;28;20234;-62
2023/03/12 04:24:21;;;;;;;0.90;0.90;;;4.70;99.90;;;;;;5052595;28;20223;-61
2023/03/12 04:26:50;;;;;;;0.90;0.90;;;4.70;99.90;;;;;;5052989;28;20208;-61
2023/03/12 04:29:17;;;;;;;0.80;0.80;;;4.70;99.90;;;;;;5052897;28;20188;-61
2023/03/12 04:31:44;;;;;;;0.90;0.90;;;4.60;99.90;;;;;;5052658;28;20204;-62
2023/03/12 04:34:11;;;;;;;0.80;0.80;;;4.60;99.90;;;;;;5052087;28;20246;-61
2023/03/12 04:36:38;;;;;;;0.53;0.53;;;4.50;99.90;;;;;;5053050;28;20206;-61
2023/03/12 04:39:06;;;;;;;1.20;1.10;;;4.60;99.90;;;;;;5052444;28;20265;-62
2023/03/12 04:41:33;;;;;;;0.80;0.80;;;4.60;99.90;;;;;;5052907;28;20216;-61
2023/03/12 04:44:01;;;;;;;0.97;0.97;;;4.60;99.90;;;;;;5052061;28;20226;-61
2023/03/12 04:46:29;;;;;;;0.80;0.80;;;4.60;99.90;;;;;;5053107;28;20204;-60
2023/03/12 04:48:56;;;;;;;0.77;0.77;;;4.70;99.90;;;;;;5053888;28;20208;-61
2023/03/12 04:51:24;;;;;;;1.00;0.90;;;4.70;99.90;;;;;;5052586;28;20211;-61
2023/03/12 04:53:50;;;;;;;0.80;0.80;;;4.70;99.90;;;;;;5053580;28;20214;-61
2023/03/12 04:56:17;;;;;;;0.70;0.70;;;4.80;99.90;;;;;;5055342;28;20203;-60
2023/03/12 04:58:44;;;;;;;0.90;0.90;;;4.80;99.90;;;;;;5053266;28;20224;-61
2023/03/12 05:01:22;;;;;;;0.70;0.70;;;4.90;99.90;;;;;;5052365;28;20754;-61
2023/03/12 05:03:49;;;;;;;0.88;0.88;;;4.80;99.90;;;;;;5052231;28;20249;-61
2023/03/12 05:06:16;;;;;;;0.98;0.98;;;4.90;99.90;;;;;;5051454;28;20208;-62
2023/03/12 05:08:43;;;;;;;0.70;0.70;;;4.80;99.90;;;;;;5052606;28;20212;-61
2023/03/12 05:11:10;;;;;;;0.87;0.87;;;4.80;99.90;;;;;;5052212;28;20210;-60
2023/03/12 05:13:37;;;;;;;0.80;0.80;;;4.80;99.90;;;;;;5051527;28;20219;-62
2023/03/12 05:16:04;;;;;;;0.80;0.80;;;4.70;99.90;;;;;;5051594;28;20224;-62
2023/03/12 05:18:32;;;;;;;0.90;0.90;;;4.70;99.90;;;;;;5052066;28;20310;-61
2023/03/12 05:21:00;;;;;;;0.93;0.93;;;4.70;99.90;;;;;;5051859;28;20584;-62
2023/03/12 05:23:27;;;;;;;0.80;0.80;;;4.80;99.90;;;;;;5052061;28;20199;-61
2023/03/12 05:25:54;;;;;;;1.07;1.00;;;4.80;99.90;;;;;;5051289;28;20255;-62
2023/03/12 05:28:26;;;;;;;1.00;1.00;;;4.80;99.90;;;;;;5051732;28;20215;-62
2023/03/12 05:30:53;;;;;;;0.80;0.80;;;4.80;99.90;;;;;;5051631;28;20218;-62
2023/03/12 05:33:20;;;;;;;0.73;0.73;;;4.80;99.90;;;;;;5051792;28;20809;-61
2023/03/12 05:35:48;;;;;;;0.88;0.60;;;4.80;99.90;;;;;;5051060;28;20224;-62
2023/03/12 05:38:15;;;;;;;1.23;1.13;;;4.80;99.90;;;;;;5051914;28;20595;-60
2023/03/12 05:40:42;;;;;;;0.60;0.60;;;4.80;99.90;;;;;;5051714;28;20655;-61
2023/03/12 05:43:09;;;;;;;0.82;0.82;;;4.90;99.90;;;;;;5051459;28;20581;-62
2023/03/12 05:45:36;;;;;;;0.77;0.77;;;4.90;99.90;;;;;;5051188;28;20596;-62
2023/03/12 05:48:02;;;;;;;0.80;0.80;;;5.00;99.90;;;;;;5051654;28;20196;-62
2023/03/12 05:50:29;;;;;;;0.80;0.80;;;5.00;99.90;;;;;;5051460;28;20206;-62
2023/03/12 05:52:57;;;;;;;0.90;0.90;;;5.00;99.90;;;;;;5051050;28;20206;-62
2023/03/12 05:55:24;;;;;;;0.80;0.80;;;5.00;99.90;;;;;;5050893;28;20228;-62
2023/03/12 05:57:51;;;;;;;0.80;0.80;;;5.00;99.90;;;;;;5051112;28;20216;-61
2023/03/12 06:00:19;;;;;;;0.80;0.80;;;5.00;99.90;;;;;;5051312;28;20210;-62
2023/03/12 06:02:46;;;;;;;0.80;0.80;;;5.00;99.90;;;;;;5052682;28;20230;-62
2023/03/12 06:05:13;;;;;;;0.90;0.90;;;5.10;99.90;;;;;;5050521;28;20599;-63
2023/03/12 06:07:40;;;;;;;0.70;0.70;;;5.10;99.90;;;;;;5055086;28;20634;-62
2023/03/12 06:10:10;;;;;;;0.80;0.80;;;5.20;99.90;;;;;;5052779;28;20203;-62
2023/03/12 06:12:37;;;;;;;0.77;0.77;;;5.20;99.90;;;;;;5051062;28;20215;-62
2023/03/12 06:15:04;;;;;;;0.90;0.90;;;5.20;99.90;;;;;;5050555;28;20257;-62
2023/03/12 06:17:32;;;;;;;1.10;1.10;;;5.20;99.90;;;;;;5051292;28;20200;-61
2023/03/12 06:19:59;;;;;;;0.93;0.93;;;5.40;99.90;;;;;;5051280;28;20206;-62
2023/03/12 06:22:26;;;;;;;0.90;0.90;;;5.40;99.90;;;;;;5051097;28;20215;-61
2023/03/12 06:24:53;;;;;;;0.87;0.87;;;5.40;99.90;;;;;;5050454;28;20278;-62
2023/03/12 06:27:21;;;;;;;0.83;0.83;;;5.40;99.90;;;;;;5051216;28;20235;-61
2023/03/12 06:29:48;;;;;;;1.00;1.00;;;5.40;99.90;;;;;;5051704;28;20214;-61
2023/03/12 06:32:15;;;;;;;0.63;0.63;;;5.40;99.90;;;;;;5052946;28;20655;-61
2023/03/12 06:34:42;;;;;;;0.80;0.80;;;5.40;99.90;;;;;;5053122;28;20329;-61
2023/03/12 06:37:10;;;;;;;0.80;0.80;;;5.60;99.90;;;;;;5058374;28;20203;-61
2023/03/12 06:39:37;;;;;;;0.80;0.80;;;5.60;99.90;;;;;;5058101;28;20228;-62
2023/03/12 06:42:05;;;;;;;0.90;0.90;;;5.70;99.90;;;;;;5057275;28;20697;-62
2023/03/12 06:44:33;;;;;;;0.75;0.75;;;5.60;99.90;;;;;;5057021;28;20224;-63
2023/03/12 06:47:00;;;;;;;0.80;0.80;;;5.60;99.90;;;;;;5057575;28;20200;-62
2023/03/12 06:49:30;;;;;;;0.93;0.93;;;5.60;99.90;;;;;;5057449;28;20214;-61
2023/03/12 06:51:57;;;;;;;0.70;0.70;;;5.70;99.90;;;;;;5057295;28;20223;-62
2023/03/12 06:54:24;;;;;;;0.80;0.80;;;5.70;99.90;;;;;;5056528;28;20823;-61
2023/03/12 06:56:52;;;;;;;0.57;0.57;;;5.70;99.90;;;;;;5057291;28;20678;-62
2023/03/12 06:59:20;;;;;;;0.77;0.77;;;5.70;99.90;;;;;;5056967;28;20830;-61
2023/03/12 07:01:48;;;;;;;0.80;0.80;;;5.80;99.90;;;;;;5056897;28;20207;-61
2023/03/12 07:04:15;;;;;;;0.80;0.80;;;5.90;99.90;;;;;;5057179;28;20327;-60
2023/03/12 07:06:42;;;;;;;0.80;0.80;;;5.90;99.90;;;;;;5058447;28;20187;-62
2023/03/12 07:09:09;;;;;;;0.80;0.80;;;6.00;99.90;;;;;;5057044;28;20212;-62
2023/03/12 07:11:36;;;;;;;0.83;0.83;;;6.00;99.90;;;;;;5056928;28;20207;-62
2023/03/12 07:14:04;;;;;;;0.70;0.70;;;6.00;99.90;;;;;;5056570;28;20211;-62
2023/03/12 07:16:31;;;;;;;0.80;0.80;;;6.00;99.90;;;;;;5057191;28;20223;-61
2023/03/12 07:19:00;;;;;;;0.60;0.60;;;6.00;99.90;;;;;;5057673;28;20702;-61
2023/03/12 07:21:27;;;;;;;0.80;0.80;;;6.10;99.90;;;;;;5057081;28;20783;-61
2023/03/12 07:23:53;;;;;;;0.73;0.73;;;6.10;99.90;;;;;;5056725;28;20208;-62
2023/03/12 07:26:20;;;;;;;0.65;0.65;;;6.20;99.90;;;;;;5057219;28;20692;-62
2023/03/12 07:28:47;;;;;;;0.73;0.73;;;6.20;99.90;;;;;;5057111;28;20678;-61
2023/03/12 07:31:14;;;;;;;0.77;0.77;;;6.20;99.90;;;;;;5056779;28;20210;-61
2023/03/12 07:33:41;;;;;;;0.60;0.60;;;6.30;99.90;;;;;;5056545;28;20208;-61
2023/03/12 07:36:10;;;;;;;1.07;0.90;;;6.30;99.90;;;;;;5056088;28;20227;-61
2023/03/12 07:38:36;;;;;;;0.70;0.70;;;6.30;99.90;;;;;;5057034;28;20227;-62
2023/03/12 07:41:03;;;;;;;0.80;0.80;;;6.40;99.90;;;;;;5057084;28;20207;-62
2023/03/12 07:43:30;;;;;;;0.70;0.70;;;6.50;99.90;;;;;;5056820;28;20200;-61
2023/03/12 07:45:57;;;;;;;0.67;0.67;;;6.60;99.90;;;;;;5053851;28;20736;-62
2023/03/12 07:48:24;;;;;;;0.60;0.60;;;6.70;99.90;;;;;;5053311;28;20196;-62
2023/03/12 07:50:51;;;;;;;1.00;1.00;;;6.80;99.90;;;;;;5053800;28;20210;-62
2023/03/12 07:53:19;;;;;;;0.98;0.98;;;6.80;99.90;;;;;;5053825;28;20220;-62
2023/03/12 07:55:47;;;;;;;0.70;0.70;;;6.90;99.90;;;;;;5053296;28;20224;-62
2023/03/12 07:58:14;;;;;;;1.17;1.00;;;6.90;99.90;;;;;;5053626;28;20227;-61
2023/03/12 08:00:41;;;;;;;0.87;0.87;;;7.00;99.90;;;;;;5053149;28;20666;-61
2023/03/12 08:03:08;;;;;;;0.90;0.90;;;7.00;99.90;;;;;;5053358;28;20253;-61
2023/03/12 08:05:35;;;;;;;0.80;0.80;;;7.00;99.90;;;;;;5052490;28;20273;-62
2023/03/12 08:08:02;;;;;;;0.70;0.70;;;7.00;99.90;;;;;;5053877;28;20204;-62
2023/03/12 08:10:30;;;;;;;0.83;0.83;;;7.10;99.90;;;;;;5053514;28;20334;-62
2023/03/12 08:12:57;;;;;;;0.73;0.73;;;7.10;99.90;;;;;;5053520;28;20306;-62
2023/03/12 08:15:24;;;;;;;0.90;0.90;;;7.20;99.90;;;;;;5054375;28;20722;-61
2023/03/12 08:17:51;;;;;;;0.70;0.70;;;7.20;99.90;;;;;;5054992;28;20605;-62
2023/03/12 08:20:18;;;;;;;0.82;0.82;;;7.30;99.90;;;;;;5053615;28;20725;-62
2023/03/12 08:22:44;;;;;;;0.70;0.70;;;7.40;99.90;;;;;;5055693;28;20234;-61
2023/03/12 08:25:11;;;;;;;0.73;0.73;;;7.40;99.90;;;;;;5059846;28;20227;-61
2023/03/12 08:27:40;;;;;;;0.90;0.90;;;7.50;99.90;;;;;;5056148;28;20286;-60
2023/03/12 08:30:08;;;;;;;0.90;0.90;;;7.50;99.90;;;;;;5053667;28;20200;-60
2023/03/12 08:32:35;;;;;;;0.90;0.90;;;7.50;99.90;;;;;;5053420;28;20208;-60
2023/03/12 08:35:04;;;;;;;1.00;1.00;;;7.70;99.90;;;;;;5051997;28;20307;-61
2023/03/12 08:37:31;;;;;;;1.08;1.08;;;7.70;99.90;;;;;;5053226;28;20667;-62
2023/03/12 08:39:58;;;;;;;1.00;1.00;;;7.70;99.90;;;;;;5045880;28;20235;-61
2023/03/12 08:42:25;;;;;;;1.10;1.10;;;7.70;99.90;;;;;;5048675;28;20214;-61
2023/03/12 08:44:54;;;;;;;1.10;1.10;;;7.70;99.90;;;;;;5048682;28;20224;-62
2023/03/12 08:47:20;;;;;;;0.93;0.90;;;7.80;99.90;;;;;;5050617;28;20214;-62
2023/03/12 08:49:47;;;;;;;0.93;0.93;;;7.90;99.90;;;;;;5051065;28;20207;-61
2023/03/12 08:52:14;;;;;;;0.80;0.80;;;8.00;99.90;;;;;;5050589;28;20218;-62
2023/03/12 08:54:41;;;;;;;1.10;1.10;;;8.10;99.90;;;;;;5049590;28;20832;-61
2023/03/12 08:57:08;;;;;;;1.00;1.00;;;8.30;99.90;;;;;;5050381;28;20251;-62
2023/03/12 08:59:35;;;;;;;0.93;0.93;;;8.50;99.90;;;;;;5050517;28;20273;-62
2023/03/12 09:02:03;;;;;;;0.93;0.93;;;8.70;99.90;;;;;;5051470;28;20208;-60
2023/03/12 09:04:30;;;;;;;0.60;0.60;;;8.80;99.90;;;;;;5051576;28;20900;-62
2023/03/12 09:06:57;;;;;;;0.90;0.90;;;8.90;99.90;;;;;;5054364;28;20670;-62
2023/03/12 09:09:24;;;;;;;0.70;0.70;;;9.10;99.90;;;;;;5055416;28;20210;-62
2023/03/12 09:11:51;;;;;;;0.90;0.90;;;9.20;99.90;;;;;;5052456;28;20215;-61
2023/03/12 09:14:17;;;;;;;0.90;0.90;;;9.30;99.90;;;;;;5050558;28;20591;-62
2023/03/12 09:16:44;;;;;;;0.97;0.90;;;9.50;99.90;;;;;;5051303;28;20218;-61
2023/03/12 09:19:13;;;;;;;1.27;1.17;;;9.60;99.90;;;;;;5053769;28;20319;-61
2023/03/12 09:21:39;;;;;;;1.40;1.30;;;9.70;99.90;;;;;;5052414;28;20198;-62
2023/03/12 09:24:07;;;;;;;1.20;1.10;;;9.80;99.90;;;;;;5051900;28;20231;-61
2023/03/12 09:26:34;;;;;;;1.30;1.30;;;9.90;99.90;;;;;;5071132;28;20212;-63
2023/03/12 09:29:00;;;;;;;1.40;1.30;;;10.00;99.90;;;;;;5067908;28;20662;-62
2023/03/12 09:31:27;;;;;;;1.20;1.10;;;10.30;99.90;;;;;;5074783;28;20207;-62
2023/03/12 09:33:54;;;;;;;1.10;1.10;;;10.60;99.90;;;;;;5065278;28;20208;-62
2023/03/12 09:36:23;;;;;;;0.80;0.80;;;10.80;99.90;;;;;;5060576;28;20302;-61
2023/03/12 09:38:49;;;;;;;1.00;1.00;;;10.90;99.90;;;;;;5050305;28;20293;-61
2023/03/12 09:41:21;;;;;;;0.85;0.85;;;11.00;99.90;;;;;;5051162;28;20299;-62
2023/03/12 09:43:52;;;;;;;0.80;0.80;;;11.20;99.90;;;;;;5050633;28;20204;-61
2023/03/12 09:46:24;;;;;;;0.70;0.70;;;11.30;99.90;;;;;;5054294;28;20204;-60
2023/03/12 09:48:53;;;;;;;1.00;1.00;;;11.40;99.90;;;;;;5049976;28;20572;-61
2023/03/12 09:51:26;;;;;;;1.50;1.40;;;11.50;99.90;;;;;;5049771;28;20211;-62
2023/03/12 09:53:57;;;;;;;1.10;1.10;;;11.50;99.90;;;;;;5049342;28;20234;-61
2023/03/12 09:56:26;;;;;;;1.30;1.20;;;11.40;99.90;;;;;;5049730;28;20212;-65
2023/03/12 09:58:55;;;;;;;1.50;1.40;;;11.40;99.90;;;;;;5054027;28;20228;-62
2023/03/12 10:01:37;;;;;;;1.10;1.10;;;11.40;99.90;;;;;;5054394;28;20212;-62
2023/03/12 10:04:14;;;;;;;1.00;1.00;;;11.40;99.90;;;;;;5049558;28;20230;-62
2023/03/12 10:06:48;;;;;;;0.90;0.90;;;11.50;99.90;;;;;;5053115;28;20212;-63
2023/03/12 10:09:33;;;;;;;1.00;1.00;;;11.50;99.90;;;;;;5058515;28;20188;-61
2023/03/12 10:12:14;;;;;;;0.83;0.83;;;11.70;99.90;;;;;;5055056;28;20731;-62
2023/03/12 10:14:51;;;;;;;0.90;0.90;;;11.70;99.90;;;;;;5054995;28;20267;-63
2023/03/12 10:17:37;;;;;;;0.90;0.90;;;12.10;99.90;;;;;;5051620;28;20209;-62
2023/03/12 10:20:26;;;;;;;0.80;0.80;;;12.50;99.90;;;;;;5049400;28;20228;-61
2023/03/12 10:23:00;;;;;;;0.90;0.90;;;13.00;99.90;;;;;;5049707;28;20218;-62
2023/03/12 10:25:31;;;;;;;1.00;1.00;;;13.50;99.90;;;;;;5048840;28;20294;-61
2023/03/12 10:28:05;;;;;;;1.07;0.97;;;13.60;99.90;;;;;;5045642;28;20207;-61
2023/03/12 10:30:35;;;;;;;0.90;0.90;;;13.50;99.90;;;;;;5035036;28;20289;-62
2023/03/12 10:33:08;;;;;;;0.93;0.90;;;13.30;99.90;;;;;;5049565;28;20191;-63
2023/03/12 10:35:36;;;;;;;0.70;0.70;;;13.20;99.90;;;;;;5052427;28;20702;-64
2023/03/12 10:38:09;;;;;;;0.83;0.83;;;13.20;99.90;;;;;;5051931;28;20218;-62
2023/03/12 10:40:37;;;;;;;1.10;1.00;;;13.20;99.90;;;;;;5048901;28;20227;-62
2023/03/12 10:43:05;;;;;;;0.90;0.90;;;13.10;99.90;;;;;;5049248;28;20215;-62
2023/03/12 10:45:38;;;;;;;0.80;0.80;;;13.20;99.90;;;;;;5048240;28;20223;-63
2023/03/12 10:48:08;;;;;;;0.93;0.90;;;13.20;99.90;;;;;;5045628;28;20246;-62
2023/03/12 10:50:37;;;;;;;0.83;0.83;;;13.50;99.90;;;;;;5047876;28;20208;-63
2023/03/12 10:53:21;;;;;;;0.70;0.70;;;14.00;99.90;;;;;;5048316;28;20214;-61
2023/03/12 10:55:59;;;;;;;0.87;0.87;;;14.20;99.90;;;;;;5048507;28;20828;-62
2023/03/12 10:58:30;;;;;;;0.75;0.75;;;14.20;99.90;;;;;;5047911;28;20242;-62
2023/03/12 11:00:59;;;;;;;1.20;1.10;;;14.10;99.90;;;;;;5044864;28;20238;-62
2023/03/12 11:03:27;;;;;;;0.88;0.88;;;13.90;99.90;;;;;;5046962;28;20303;-63
2023/03/12 11:05:56;;;;;;;0.93;0.85;;;13.80;99.90;;;;;;5046205;28;20234;-61
2023/03/12 11:08:26;;;;;;;0.90;0.90;;;13.80;99.90;;;;;;5048731;28;20247;-63
2023/03/12 11:10:55;;;;;;;0.95;0.95;;;13.60;99.90;;;;;;5038859;28;20292;-62
2023/03/12 11:13:26;;;;;;;1.20;1.17;;;13.70;99.90;;;;;;5028993;28;20221;-62
2023/03/12 11:15:54;;;;;;;1.10;1.10;;;13.60;99.90;;;;;;5028740;28;20242;-62
2023/03/12 11:18:27;;;;;;;1.07;1.07;;;13.60;99.90;;;;;;5026274;28;20215;-63
2023/03/12 11:20:56;;;;;;;0.85;0.85;;;13.60;99.90;;;;;;5030335;28;20781;-63
2023/03/12 11:23:28;;;;;;;1.00;1.00;;;13.40;99.90;;;;;;5050562;28;20204;-62
2023/03/12 11:26:00;;;;;;;0.80;0.80;;;13.40;99.90;;;;;;5051669;28;20227;-64
2023/03/12 11:28:36;;;;;;;1.10;1.10;;;13.40;99.90;;;;;;5052266;28;20758;-62
2023/03/12 11:31:05;;;;;;;1.10;1.10;;;13.30;99.90;;;;;;5052369;28;20218;-61
2023/03/12 11:33:32;;;;;;;0.90;0.90;;;13.20;99.90;;;;;;5052162;28;20720;-63
2023/03/12 11:36:21;;;;;;;1.00;1.00;;;13.20;99.90;;;;;;5053966;28;20228;-63
2023/03/12 11:38:56;;;;;;;1.40;1.30;;;13.10;99.90;;;;;;5044371;28;20205;-62
2023/03/12 11:41:42;;;;;;;1.05;1.05;;;13.10;99.90;;;;;;5054532;28;20195;-66
2023/03/12 11:44:33;;;;;;;1.20;1.10;;;13.00;99.90;;;;;;5035022;28;20814;-62
2023/03/12 11:47:14;;;;;;;1.60;1.30;;;13.00;99.90;;;;;;5045097;28;20291;-63
2023/03/12 11:49:58;;;;;;;1.70;1.60;;;12.90;99.90;;;;;;5039581;28;20667;-62
2023/03/12 11:52:33;;;;;;;1.83;1.73;;;12.90;99.90;;;;;;5030128;28;20965;-63
2023/03/12 11:55:16;;;;;;;1.77;1.10;;;12.90;99.90;;;;;;5044973;28;20596;-63
2023/03/12 11:58:01;;;;;;;1.50;1.40;;;12.90;99.90;;;;;;5052603;28;20200;-62
2023/03/12 12:00:36;;;;;;;1.30;1.23;;;12.80;99.90;;;;;;5055492;28;20735;-64
2023/03/12 12:03:32;;;;;;;1.70;1.30;;;12.90;99.90;;;;;;5056958;28;20191;-62
2023/03/12 12:06:04;;;;;;;1.50;1.40;;;12.80;99.90;;;;;;5050144;28;20275;-65
2023/03/12 12:08:52;;;;;;;1.40;1.30;;;13.00;99.90;;;;;;5049216;28;20218;-62
2023/03/12 12:11:32;;;;;;;1.20;1.20;;;12.90;99.90;;;;;;5048327;28;20276;-62
2023/03/12 12:14:12;;;;;;;1.43;1.33;;;12.80;99.90;;;;;;5050849;28;20231;-62
2023/03/12 12:16:59;;;;;;;1.10;1.10;;;12.70;99.90;;;;;;5051712;28;20214;-62
2023/03/12 12:19:39;;;;;;;1.00;1.00;;;12.70;99.90;;;;;;5051562;28;20233;-63
2023/03/12 12:22:22;;;;;;;1.37;1.27;;;12.80;99.90;;;;;;5051686;28;20191;-64
2023/03/12 12:25:19;;;;;;;1.10;1.00;;;12.80;99.90;;;;;;5051321;28;20949;-63
2023/03/12 12:28:00;;;;;;;1.57;1.30;;;12.80;99.90;;;;;;5025201;28;20215;-63
2023/03/12 12:30:34;;;;;;;1.40;1.30;;;12.70;99.90;;;;;;5051000;28;20582;-62
2023/03/12 12:33:16;;;;;;;1.13;1.13;;;12.70;99.90;;;;;;5050524;28;20193;-64
2023/03/12 12:35:43;;;;;;;1.73;1.20;;;12.60;99.90;;;;;;5050384;28;20223;-64
2023/03/12 12:38:15;;;;;;;1.63;1.30;;;12.60;99.90;;;;;;5051069;28;20200;-64
2023/03/12 12:40:47;;;;;;;1.23;1.20;;;12.50;99.90;;;;;;5050515;28;20211;-63
2023/03/12 12:43:26;;;;;;;1.17;1.07;;;12.50;99.90;;;;;;5051673;28;20212;-64
2023/03/12 12:45:57;;;;;;;1.60;1.50;;;12.60;99.90;;;;;;5051452;28;20310;-64
2023/03/12 12:48:30;;;;;;;1.53;1.30;;;12.70;99.90;;;;;;5056989;28;20196;-63
2023/03/12 12:50:59;;;;;;;1.60;1.30;;;12.70;99.90;;;;;;5053325;28;20184;-64
2023/03/12 12:53:30;;;;;;;1.50;1.40;;;12.80;99.90;;;;;;5051210;28;20215;-64
2023/03/12 12:56:06;;;;;;;1.30;1.20;;;12.70;99.90;;;;;;5050604;28;20232;-62
2023/03/12 12:59:02;;;;;;;1.00;1.00;;;12.70;99.90;;;;;;5051707;28;20196;-62
2023/03/12 13:01:30;;;;;;;1.00;1.00;;;12.80;99.90;;;;;;5050028;28;20231;-63
2023/03/12 13:04:04;;;;;;;1.30;1.20;;;12.90;99.90;;;;;;5049336;28;20220;-64
2023/03/12 13:06:56;;;;;;;1.00;1.00;;;13.00;99.90;;;;;;5051003;28;20192;-62